createdAt,value
2023-01-21T01:56:39.496Z,0.15
2023-01-21T01:57:45.155Z,0.09
2023-01-21T01:58:48.783Z,0.13
2023-01-21T01:59:50.977Z,0.18
2023-01-21T02:00:53.103Z,0.24
2023-01-21T02:01:58.230Z,0.27
2023-01-21T02:03:00.988Z,0.28
2023-01-21T02:04:07.343Z,0.31
2023-01-21T02:05:11.481Z,0.32
2023-01-21T02:06:15.430Z,0.35
2023-01-21T02:07:19.980Z,0.34
2023-01-21T02:08:23.371Z,0.38
2023-01-21T02:09:25.390Z,0.39
2023-01-21T02:10:27.672Z,0.34
2023-01-21T02:11:29.661Z,0.37
2023-01-21T02:12:33.095Z,0.36
2023-01-21T02:13:36.889Z,0.43
2023-01-21T02:14:41.051Z,0.40
2023-01-21T02:15:46.840Z,0.44
2023-01-21T02:16:52.800Z,0.46
2023-01-21T02:18:19.804Z,0.42
2023-01-21T02:19:42.592Z,0.48
2023-01-21T02:21:04.417Z,0.44
2023-01-21T02:22:28.479Z,0.48
2023-01-21T02:23:52.439Z,0.45
2023-01-21T02:26:50.732Z,0.58
2023-01-21T02:28:08.647Z,0.50
2023-01-21T02:30:25.728Z,0.56
2023-01-21T02:31:43.595Z,0.44
2023-01-21T02:32:59.343Z,0.46
2023-01-21T02:34:23.044Z,0.42
2023-01-21T02:35:44.349Z,0.47
2023-01-21T02:37:00.580Z,0.47
2023-01-21T02:39:35.925Z,0.56
2023-01-21T02:40:44.894Z,0.45
2023-01-21T02:42:11.565Z,0.48
2023-01-21T02:43:41.313Z,0.45
2023-01-21T02:45:58.292Z,0.56
2023-01-21T02:47:34.500Z,0.39
2023-01-21T02:48:42.901Z,0.43
2023-01-21T02:50:18.658Z,0.44
2023-01-21T02:51:22.641Z,0.45
2023-01-21T02:52:26.171Z,0.44
2023-01-21T02:53:34.050Z,0.42
2023-01-21T02:54:42.615Z,0.40
2023-01-21T02:55:44.656Z,0.47
2023-01-21T02:56:47.055Z,0.44
2023-01-21T02:57:52.713Z,0.41
2023-01-21T03:00:12.732Z,0.54
2023-01-21T03:01:35.279Z,0.46
2023-01-21T03:03:03.863Z,0.50
2023-01-21T03:04:27.854Z,0.46
2023-01-21T03:05:50.507Z,0.43
2023-01-21T03:07:16.951Z,0.40
2023-01-21T03:08:22.107Z,0.45
2023-01-21T03:09:31.549Z,0.44
2023-01-21T03:10:41.376Z,0.42
2023-01-21T03:11:47.053Z,0.43
2023-01-21T03:13:10.597Z,0.47
2023-01-21T03:14:19.078Z,0.45
2023-01-21T03:15:24.910Z,0.45
2023-01-21T03:16:31.111Z,0.45
2023-01-21T03:18:01.099Z,0.42
2023-01-21T03:19:06.994Z,0.42
2023-01-21T03:20:16.367Z,0.39
2023-01-21T03:21:22.317Z,0.43
2023-01-21T03:22:28.111Z,0.41
2023-01-21T03:23:33.879Z,0.40
2023-01-21T03:24:39.634Z,0.39
2023-01-21T03:25:41.717Z,0.43
2023-01-21T03:26:47.442Z,0.43
2023-01-21T03:27:51.728Z,0.41
2023-01-21T03:28:57.504Z,0.41
2023-01-21T03:30:15.418Z,0.45
2023-01-21T03:31:23.949Z,0.45
2023-01-21T03:32:29.418Z,0.39
2023-01-21T03:33:35.188Z,0.43
2023-01-21T03:34:40.870Z,0.43
2023-01-21T03:35:46.669Z,0.41
2023-01-21T03:37:01.931Z,0.47
2023-01-21T03:38:20.169Z,0.44
2023-01-21T03:39:37.896Z,0.42
2023-01-21T03:40:43.771Z,0.47
2023-01-21T03:41:45.929Z,0.44
2023-01-21T03:42:50.175Z,0.45
2023-01-21T03:43:53.518Z,0.43
2023-01-21T03:44:56.015Z,0.48
2023-01-21T03:46:04.819Z,0.50
2023-01-21T03:48:21.859Z,0.59
2023-01-21T03:49:33.470Z,0.45
2023-01-21T03:50:42.376Z,0.45
2023-01-21T03:51:51.291Z,0.45
2023-01-21T03:52:53.357Z,0.43
2023-01-21T03:53:56.743Z,0.44
2023-01-21T03:54:59.058Z,0.36
2023-01-21T03:56:01.047Z,0.38
2023-01-21T03:57:04.031Z,0.40
2023-01-21T03:58:06.068Z,0.42
2023-01-21T03:59:08.588Z,0.45
2023-01-21T04:00:12.247Z,0.44
2023-01-21T04:01:14.384Z,0.42
2023-01-21T04:02:16.656Z,0.43
2023-01-21T04:03:18.808Z,0.44
2023-01-21T04:04:21.038Z,0.42
2023-01-21T04:05:24.243Z,0.50
2023-01-21T04:06:26.407Z,0.52
2023-01-21T04:07:29.098Z,0.46
2023-01-21T04:08:30.988Z,0.42
2023-01-21T04:09:32.889Z,0.46
2023-01-21T04:10:35.195Z,0.50
2023-01-21T04:11:37.069Z,0.47
2023-01-21T04:12:38.950Z,0.51
2023-01-21T04:13:41.183Z,0.47
2023-01-21T04:14:43.356Z,0.48
2023-01-21T04:15:45.365Z,0.51
2023-01-21T04:16:47.342Z,0.44
2023-01-21T04:17:49.568Z,0.44
2023-01-21T04:18:51.601Z,0.49
2023-01-21T04:19:53.819Z,0.46
2023-01-21T04:20:56.182Z,0.46
2023-01-21T04:21:58.578Z,0.42
2023-01-21T04:23:01.362Z,0.47
2023-01-21T04:24:04.360Z,0.45
2023-01-21T04:25:06.998Z,0.46
2023-01-21T04:26:10.169Z,0.47
2023-01-21T04:27:12.079Z,0.50
2023-01-21T04:28:14.199Z,0.49
2023-01-21T04:29:16.189Z,0.51
2023-01-21T04:30:18.798Z,0.47
2023-01-21T04:31:21.068Z,0.49
2023-01-21T04:32:23.321Z,0.49
2023-01-21T04:33:27.120Z,0.48
2023-01-21T04:34:29.579Z,0.48
2023-01-21T04:35:33.479Z,0.46
2023-01-21T04:36:35.626Z,0.45
2023-01-21T04:37:37.537Z,0.46
2023-01-21T04:38:39.692Z,0.46
2023-01-21T04:39:41.582Z,0.51
2023-01-21T04:40:43.660Z,0.52
2023-01-21T04:41:48.578Z,0.50
2023-01-21T04:42:50.581Z,0.47
2023-01-21T04:43:52.488Z,0.46
2023-01-21T04:44:54.419Z,0.48
2023-01-21T04:45:56.390Z,0.46
2023-01-21T04:46:58.423Z,0.52
2023-01-21T04:48:00.445Z,0.45
2023-01-21T04:49:02.353Z,0.46
2023-01-21T04:50:05.487Z,0.50
2023-01-21T04:51:07.525Z,0.48
2023-01-21T04:52:09.478Z,0.47
2023-01-21T04:53:11.942Z,0.42
2023-01-21T04:54:14.876Z,0.42
2023-01-21T04:55:17.049Z,0.44
2023-01-21T04:56:19.453Z,0.43
2023-01-21T04:57:21.443Z,0.42
2023-01-21T04:58:23.465Z,0.52
2023-01-21T04:59:25.332Z,0.44
2023-01-21T05:00:27.540Z,0.44
2023-01-21T05:01:29.560Z,0.44
2023-01-21T05:02:32.455Z,0.42
2023-01-21T05:03:34.481Z,0.47
2023-01-21T05:04:36.342Z,0.44
2023-01-21T05:05:38.243Z,0.48
2023-01-21T05:06:40.439Z,0.45
2023-01-21T05:07:42.412Z,0.46
2023-01-21T05:08:44.300Z,0.41
2023-01-21T05:09:48.420Z,0.39
2023-01-21T05:10:50.535Z,0.45
2023-01-21T05:11:52.495Z,0.46
2023-01-21T05:12:54.527Z,0.45
2023-01-21T05:13:56.426Z,0.44
2023-01-21T05:14:58.312Z,0.48
2023-01-21T05:16:07.242Z,0.44
2023-01-21T05:17:09.246Z,0.45
2023-01-21T05:18:12.214Z,0.49
2023-01-21T05:19:14.187Z,0.43
2023-01-21T05:20:17.316Z,0.38
2023-01-21T05:21:19.386Z,0.43
2023-01-21T05:22:21.286Z,0.40
2023-01-21T05:23:23.335Z,0.41
2023-01-21T05:24:25.475Z,0.36
2023-01-21T05:25:27.356Z,0.32
2023-01-21T05:26:29.549Z,0.31
2023-01-21T05:27:33.667Z,0.39
2023-01-21T05:28:35.613Z,0.39
2023-01-21T05:29:37.490Z,0.34
2023-01-21T05:30:41.338Z,0.31
2023-01-21T05:31:44.232Z,0.38
2023-01-21T05:32:51.270Z,0.39
2023-01-21T05:33:53.287Z,0.38
2023-01-21T05:34:55.393Z,0.40
2023-01-21T05:35:57.765Z,0.39
2023-01-21T05:36:59.857Z,0.37
2023-01-21T05:38:01.848Z,0.36
2023-01-21T05:39:04.599Z,0.37
2023-01-21T05:40:09.477Z,0.33
2023-01-21T05:41:11.737Z,0.39
2023-01-21T05:42:13.821Z,0.38
2023-01-21T05:43:15.712Z,0.39
2023-01-21T05:44:17.953Z,0.36
2023-01-21T05:45:20.169Z,0.35
2023-01-21T05:46:22.769Z,0.32
2023-01-21T05:47:24.855Z,0.36
2023-01-21T05:48:27.280Z,0.35
2023-01-21T05:49:29.384Z,0.35
2023-01-21T05:50:31.944Z,0.32
2023-01-21T05:51:33.814Z,0.32
2023-01-21T05:52:36.320Z,0.35
2023-01-21T05:53:38.432Z,0.36
2023-01-21T05:54:52.407Z,0.32
2023-01-21T05:55:44.265Z,0.32
2023-01-21T05:56:46.331Z,0.29
2023-01-21T05:57:48.657Z,0.34
2023-01-21T05:58:51.867Z,0.34
2023-01-21T05:59:53.772Z,0.36
2023-01-21T06:00:57.131Z,0.38
2023-01-21T06:01:59.040Z,0.32
2023-01-21T06:03:01.789Z,0.28
2023-01-21T06:04:04.199Z,0.32
2023-01-21T06:05:07.189Z,0.32
2023-01-21T06:06:10.283Z,0.33
2023-01-21T06:07:12.230Z,0.37
2023-01-21T06:08:14.320Z,0.31
2023-01-21T06:09:16.217Z,0.34
2023-01-21T06:10:19.738Z,0.31
2023-01-21T06:11:21.677Z,0.35
2023-01-21T06:12:24.818Z,0.30
2023-01-21T06:13:27.189Z,0.30
2023-01-21T06:14:29.084Z,0.30
2023-01-21T06:15:31.152Z,0.29
2023-01-21T06:16:33.211Z,0.32
2023-01-21T06:17:40.296Z,0.30
2023-01-21T06:18:42.269Z,0.32
2023-01-21T06:19:44.219Z,0.31
2023-01-21T06:20:46.931Z,0.34
2023-01-21T06:21:51.578Z,0.33
2023-01-21T06:22:53.512Z,0.30
2023-01-21T06:23:55.512Z,0.37
2023-01-21T06:24:57.406Z,0.41
2023-01-21T06:26:00.299Z,0.34
2023-01-21T06:27:02.198Z,0.30
2023-01-21T06:28:04.497Z,0.35
2023-01-21T06:29:06.493Z,0.32
2023-01-21T06:30:10.175Z,0.31
2023-01-21T06:31:12.221Z,0.35
2023-01-21T06:32:14.383Z,0.38
2023-01-21T06:33:16.398Z,0.42
2023-01-21T06:34:18.425Z,0.35
2023-01-21T06:35:20.621Z,0.36
2023-01-21T06:36:23.071Z,0.40
2023-01-21T06:37:25.209Z,0.43
2023-01-21T06:38:27.222Z,0.39
2023-01-21T06:39:29.121Z,0.42
2023-01-21T06:40:31.205Z,0.39
2023-01-21T06:41:33.667Z,0.41
2023-01-21T06:42:36.066Z,0.38
2023-01-21T06:43:38.085Z,0.45
2023-01-21T06:44:40.091Z,0.41
2023-01-21T06:45:43.020Z,0.32
2023-01-21T06:46:55.852Z,0.34
2023-01-21T06:47:49.667Z,0.33
2023-01-21T06:48:52.212Z,0.42
2023-01-21T06:49:54.403Z,0.42
2023-01-21T06:50:59.717Z,0.34
2023-01-21T06:52:02.460Z,0.37
2023-01-21T06:53:04.369Z,0.38
2023-01-21T06:54:06.377Z,0.41
2023-01-21T06:55:09.624Z,0.43
2023-01-21T06:56:11.805Z,0.43
2023-01-21T06:57:14.504Z,0.41
2023-01-21T06:58:16.499Z,0.39
2023-01-21T06:59:19.252Z,0.42
2023-01-21T07:00:22.082Z,0.40
2023-01-21T07:01:24.162Z,0.44
2023-01-21T07:02:26.825Z,0.39
2023-01-21T07:03:28.889Z,0.37
2023-01-21T07:04:30.828Z,0.36
2023-01-21T07:05:33.012Z,0.40
2023-01-21T07:06:36.122Z,0.35
2023-01-21T07:07:38.500Z,0.33
2023-01-21T07:08:40.416Z,0.39
2023-01-21T07:09:42.282Z,0.38
2023-01-21T07:10:47.761Z,0.39
2023-01-21T07:11:49.721Z,0.37
2023-01-21T07:12:51.815Z,0.38
2023-01-21T07:13:53.695Z,0.42
2023-01-21T07:14:55.700Z,0.43
2023-01-21T07:16:01.464Z,0.43
2023-01-21T07:17:04.389Z,0.40
2023-01-21T07:18:06.263Z,0.34
2023-01-21T07:19:08.134Z,0.31
2023-01-21T07:20:11.125Z,0.34
2023-01-21T07:21:13.457Z,0.34
2023-01-21T07:22:15.340Z,0.33
2023-01-21T07:23:17.254Z,0.26
2023-01-21T07:24:19.415Z,0.29
2023-01-21T07:25:21.301Z,0.28
2023-01-21T07:26:23.282Z,0.32
2023-01-21T07:27:26.100Z,0.29
2023-01-21T07:28:27.978Z,0.26
2023-01-21T07:29:29.907Z,0.32
2023-01-21T07:30:32.108Z,0.28
2023-01-21T07:31:35.310Z,0.27
2023-01-21T07:32:37.365Z,0.23
2023-01-21T07:33:39.954Z,0.24
2023-01-21T07:34:42.151Z,0.26
2023-01-21T07:35:44.019Z,0.24
2023-01-21T07:36:46.021Z,0.29
2023-01-21T07:37:47.914Z,0.31
2023-01-21T07:38:49.918Z,0.32
2023-01-21T07:39:54.508Z,0.29
2023-01-21T07:40:56.028Z,0.34
2023-01-21T07:41:58.231Z,0.33
2023-01-21T07:43:00.383Z,0.32
2023-01-21T07:44:02.273Z,0.31
2023-01-21T07:45:05.699Z,0.29
2023-01-21T07:46:08.629Z,0.29
2023-01-21T07:47:10.748Z,0.29
2023-01-21T07:48:13.215Z,0.29
2023-01-21T07:49:15.195Z,0.31
2023-01-21T07:50:18.138Z,0.30
2023-01-21T07:51:21.871Z,0.29
2023-01-21T07:52:25.234Z,0.30
2023-01-21T07:53:27.303Z,0.29
2023-01-21T07:54:29.248Z,0.29
2023-01-21T07:55:31.683Z,0.31
2023-01-21T07:56:33.660Z,0.28
2023-01-21T07:57:35.594Z,0.20
2023-01-21T07:58:38.083Z,0.23
2023-01-21T07:59:40.064Z,0.26
2023-01-21T08:00:42.051Z,0.23
2023-01-21T08:01:44.509Z,0.26
2023-01-21T08:02:52.260Z,0.28
2023-01-21T08:03:54.240Z,0.26
2023-01-21T08:04:56.117Z,0.24
2023-01-21T08:05:58.154Z,0.24
2023-01-21T08:07:00.433Z,0.24
2023-01-21T08:08:03.325Z,0.22
2023-01-21T08:09:05.404Z,0.20
2023-01-21T08:10:09.023Z,0.23
2023-01-21T08:11:10.906Z,0.27
2023-01-21T08:12:12.792Z,0.28
2023-01-21T08:13:14.738Z,0.26
2023-01-21T08:14:16.938Z,0.19
2023-01-21T08:15:19.314Z,0.26
2023-01-21T08:16:21.868Z,0.26
2023-01-21T08:17:24.069Z,0.23
2023-01-21T08:18:25.937Z,0.23
2023-01-21T08:19:27.830Z,0.23
2023-01-21T11:51:30.765Z,-0.26
2023-01-21T11:52:32.679Z,-0.32
2023-01-21T11:53:34.573Z,-0.29
2023-01-21T11:54:39.481Z,-0.33
2023-01-21T11:55:45.246Z,-0.30
2023-01-21T11:56:59.806Z,-0.27
2023-01-21T11:58:02.173Z,-0.28
2023-01-21T11:59:19.716Z,-0.28
2023-01-21T12:00:26.332Z,-0.24
2023-01-21T12:01:28.466Z,-0.22
2023-01-21T12:02:37.440Z,-0.15
2023-01-21T12:03:46.079Z,-0.11
2023-01-21T12:04:57.786Z,-0.11
2023-01-21T12:06:00.374Z,-0.10
2023-01-21T12:07:04.403Z,-0.06
2023-01-21T12:08:07.120Z,-0.06
2023-01-21T12:09:13.461Z,-0.05
2023-01-21T12:10:31.339Z,-0.03
2023-01-21T12:11:33.488Z,-0.07
2023-01-21T12:13:08.264Z,-0.10
2023-01-21T12:14:20.169Z,-0.11
2023-01-21T12:16:51.996Z,0.02
2023-01-21T12:18:06.980Z,-0.07
2023-01-21T12:20:52.188Z,0.08
2023-01-21T12:22:20.757Z,-0.02
2023-01-21T12:23:46.948Z,-0.04
2023-01-21T12:25:01.701Z,-0.08
2023-01-21T12:26:27.434Z,-0.08
2023-01-21T12:27:48.598Z,-0.11
2023-01-21T12:29:00.308Z,-0.09
2023-01-21T12:30:21.116Z,-0.07
2023-01-21T12:31:29.810Z,-0.07
2023-01-21T12:32:41.606Z,-0.04
2023-01-21T12:33:53.358Z,-0.02
2023-01-21T12:35:01.981Z,-0.01
2023-01-21T12:36:07.820Z,-0.03
2023-01-21T12:37:20.128Z,-0.03
2023-01-21T12:38:27.243Z,0.05
2023-01-21T12:39:32.520Z,0.05
2023-01-21T12:41:55.856Z,0.14
2023-01-21T12:43:01.548Z,0.04
2023-01-21T12:44:25.855Z,0.08
2023-01-21T12:45:34.963Z,0.10
2023-01-21T12:46:40.929Z,0.05
2023-01-21T12:47:55.936Z,0.13
2023-01-21T12:49:07.762Z,0.11
2023-01-21T12:50:25.613Z,0.18
2023-01-21T12:51:34.050Z,0.13
2023-01-21T12:52:46.034Z,0.13
2023-01-21T12:53:56.493Z,0.13
2023-01-21T12:56:13.536Z,0.26
2023-01-21T12:57:35.950Z,0.12
2023-01-21T12:58:41.653Z,0.15
2023-01-21T12:59:53.104Z,0.15
2023-01-21T13:00:59.022Z,0.16
2023-01-21T13:02:24.701Z,0.15
2023-01-21T13:03:51.732Z,0.14
2023-01-21T13:05:12.892Z,0.12
2023-01-21T13:06:47.228Z,0.13
2023-01-21T13:07:44.352Z,0.14
2023-01-21T13:09:20.627Z,0.11
2023-01-21T13:10:32.276Z,0.15
2023-01-21T13:11:44.150Z,0.14
2023-01-21T13:12:53.028Z,0.11
2023-01-21T13:14:10.803Z,0.14
2023-01-21T13:15:25.445Z,0.17
2023-01-21T13:16:29.267Z,0.13
2023-01-21T13:17:34.593Z,0.09
2023-01-21T13:18:40.393Z,0.10
2023-01-21T13:19:42.330Z,0.06
2023-01-21T13:20:51.249Z,0.07
2023-01-21T13:22:02.560Z,0.08
2023-01-21T13:23:14.045Z,0.11
2023-01-21T13:24:21.722Z,0.11
2023-01-21T13:25:36.339Z,0.17
2023-01-21T13:26:45.121Z,0.09
2023-01-21T13:27:50.831Z,0.07
2023-01-21T13:29:02.698Z,0.07
2023-01-21T13:30:18.516Z,0.06
2023-01-21T13:31:33.625Z,0.06
2023-01-21T13:32:55.514Z,0.04
2023-01-21T13:34:10.354Z,0.01
2023-01-21T13:35:21.889Z,0.00
2023-01-21T13:36:34.833Z,0.04
2023-01-21T13:37:58.558Z,0.07
2023-01-21T13:39:24.296Z,0.08
2023-01-21T13:40:45.362Z,0.06
2023-01-21T13:41:54.117Z,0.00
2023-01-21T13:43:15.072Z,0.01
2023-01-21T13:44:29.507Z,0.03
2023-01-21T13:45:38.297Z,0.04
2023-01-21T13:47:18.754Z,0.00
2023-01-21T13:48:41.084Z,0.04
2023-01-21T13:50:10.079Z,0.04
2023-01-21T13:51:27.778Z,0.06
2023-01-21T13:53:04.843Z,0.03
2023-01-21T13:54:19.693Z,0.01
2023-01-21T13:57:22.297Z,0.11
2023-01-21T13:59:59.053Z,0.11
2023-01-21T14:01:04.952Z,0.02
2023-01-21T14:02:17.029Z,0.02
2023-01-21T14:03:28.985Z,-0.01
2023-01-21T14:04:40.739Z,0.03
2023-01-21T14:05:46.433Z,0.03
2023-01-21T14:06:54.927Z,0.03
2023-01-21T14:08:03.605Z,0.05
2023-01-21T14:09:20.970Z,0.07
2023-01-21T14:10:29.070Z,0.10
2023-01-21T14:11:37.809Z,0.05
2023-01-21T14:13:06.559Z,0.09
2023-01-21T14:14:41.264Z,0.04
2023-01-21T14:16:07.311Z,0.04
2023-01-21T14:18:30.621Z,0.18
2023-01-21T14:19:53.156Z,0.04
2023-01-21T14:21:32.844Z,0.05
2023-01-21T14:22:58.952Z,0.10
2023-01-21T14:24:38.442Z,0.09
2023-01-21T14:25:52.752Z,0.07
2023-01-21T14:27:15.432Z,0.10
2023-01-21T14:28:47.355Z,0.08
2023-01-21T14:29:55.937Z,0.11
2023-01-21T14:31:11.587Z,0.10
2023-01-21T14:32:41.760Z,0.12
2023-01-21T14:33:50.089Z,0.08
2023-01-21T14:35:20.390Z,0.08
2023-01-21T14:36:35.173Z,0.11
2023-01-21T14:37:46.975Z,0.13
2023-01-21T14:38:52.710Z,0.10
2023-01-21T14:40:01.169Z,0.11
2023-01-21T14:41:07.019Z,0.07
2023-01-21T14:42:12.075Z,0.13
2023-01-21T14:44:37.900Z,0.20
2023-01-21T14:45:54.876Z,0.08
2023-01-21T14:47:20.191Z,0.15
2023-01-21T14:48:34.044Z,0.15
2023-01-21T14:49:41.608Z,0.18
2023-01-21T14:50:53.132Z,0.16
2023-01-21T14:51:55.194Z,0.17
2023-01-21T14:52:57.204Z,0.16
2023-01-21T14:54:05.503Z,0.17
2023-01-21T14:55:28.172Z,0.18
2023-01-21T14:56:36.022Z,0.15
2023-01-21T14:57:41.256Z,0.16
2023-01-21T14:58:48.672Z,0.17
2023-01-21T14:59:53.393Z,0.14
2023-01-21T15:00:56.065Z,0.13
2023-01-21T15:02:01.483Z,0.16
2023-01-21T15:03:15.822Z,0.20
2023-01-21T15:04:27.631Z,0.21
2023-01-21T15:05:36.037Z,0.13
2023-01-21T15:06:40.147Z,0.16
2023-01-21T15:07:44.974Z,0.18
2023-01-21T15:08:50.555Z,0.18
2023-01-21T15:09:59.399Z,0.16
2023-01-21T15:11:04.358Z,0.13
2023-01-21T15:12:13.550Z,0.16
2023-01-21T15:13:28.112Z,0.17
2023-01-21T15:14:36.393Z,0.20
2023-01-21T15:16:01.664Z,0.21
2023-01-21T15:17:05.236Z,0.15
2023-01-21T15:18:22.632Z,0.16
2023-01-21T15:19:31.032Z,0.15
2023-01-21T15:20:45.830Z,0.13
2023-01-21T15:22:17.724Z,0.13
2023-01-21T15:23:32.631Z,0.16
2023-01-21T15:24:38.357Z,0.24
2023-01-21T15:26:02.611Z,0.21
2023-01-21T15:27:23.292Z,0.19
2023-01-21T15:28:47.197Z,0.18
2023-01-21T15:29:59.059Z,0.18
2023-01-21T15:31:04.746Z,0.19
2023-01-21T15:32:31.541Z,0.20
2023-01-21T15:34:52.409Z,0.35
2023-01-21T15:35:55.788Z,0.21
2023-01-21T15:36:58.681Z,0.24
2023-01-21T15:38:14.684Z,0.23
2023-01-21T15:39:29.030Z,0.25
2023-01-21T15:40:37.988Z,0.25
2023-01-21T15:41:49.859Z,0.25
2023-01-21T15:43:14.838Z,0.30
2023-01-21T15:44:43.372Z,0.28
2023-01-21T15:45:52.098Z,0.28
2023-01-21T15:48:12.251Z,0.42
2023-01-21T15:49:23.592Z,0.30
2023-01-21T15:50:41.222Z,0.25
2023-01-21T15:52:03.523Z,0.28
2023-01-21T15:53:09.390Z,0.25
2023-01-21T15:54:20.868Z,0.28
2023-01-21T15:55:30.430Z,0.27
2023-01-21T15:56:45.352Z,0.30
2023-01-21T15:58:02.683Z,0.29
2023-01-21T15:59:23.790Z,0.28
2023-01-21T16:00:50.738Z,0.25
2023-01-21T16:02:23.116Z,0.30
2023-01-21T16:03:38.205Z,0.32
2023-01-21T16:04:43.975Z,0.28
2023-01-21T19:49:22.025Z,0.66
2023-01-21T19:50:27.234Z,0.56
2023-01-21T19:51:31.981Z,0.57
2023-01-21T19:52:33.030Z,0.58
2023-01-21T19:53:35.374Z,0.63
2023-01-21T19:54:37.250Z,0.63
2023-01-21T19:55:40.653Z,0.64
2023-01-21T19:56:43.213Z,0.64
2023-01-21T19:57:47.016Z,0.64
2023-01-21T19:58:49.798Z,0.66
2023-01-21T19:59:52.781Z,0.67
2023-01-21T20:00:55.536Z,0.69
2023-01-21T20:01:57.672Z,0.74
2023-01-21T20:03:02.256Z,0.77
2023-01-21T20:04:04.566Z,0.75
2023-01-21T20:05:07.595Z,0.80
2023-01-21T20:06:10.481Z,0.82
2023-01-21T20:07:13.955Z,0.79
2023-01-21T20:08:19.620Z,0.81
2023-01-21T20:09:21.634Z,0.81
2023-01-21T20:10:26.798Z,0.85
2023-01-21T20:11:28.956Z,0.93
2023-01-21T20:12:30.925Z,0.91
2023-01-21T20:13:32.823Z,0.94
2023-01-21T20:14:34.719Z,0.96
2023-01-21T20:15:37.104Z,0.94
2023-01-21T20:16:45.615Z,0.94
2023-01-21T20:17:51.287Z,0.94
2023-01-21T20:18:53.715Z,0.98
2023-01-21T20:19:55.609Z,0.97
2023-01-21T20:20:57.581Z,0.99
2023-01-21T20:22:02.507Z,1.00
2023-01-21T20:23:03.448Z,0.98
2023-01-21T20:24:07.334Z,0.99
2023-01-21T20:25:15.252Z,1.00
2023-01-21T20:26:24.203Z,0.97
2023-01-21T20:27:26.128Z,1.02
2023-01-21T20:28:40.807Z,0.98
2023-01-21T20:29:49.444Z,0.96
2023-01-21T20:30:48.720Z,0.97
2023-01-21T20:31:50.829Z,1.00
2023-01-21T20:32:57.118Z,1.00
2023-01-21T20:33:59.246Z,1.02
2023-01-21T20:35:01.250Z,1.03
2023-01-21T20:36:10.017Z,1.02
2023-01-21T20:37:13.641Z,1.03
2023-01-21T20:38:18.286Z,0.97
2023-01-21T20:39:20.372Z,1.01
2023-01-21T20:40:25.267Z,0.96
2023-01-21T20:41:27.290Z,0.98
2023-01-21T20:43:31.195Z,1.03
2023-01-21T20:44:33.168Z,1.07
2023-01-21T20:45:38.801Z,1.01
2023-01-21T20:46:41.935Z,1.00
2023-01-21T20:47:50.091Z,1.04
2023-01-21T20:48:51.552Z,1.03
2023-01-21T20:49:53.580Z,1.03
2023-01-21T20:50:55.728Z,1.04
2023-01-21T20:51:58.884Z,1.07
2023-01-21T20:53:04.480Z,1.02
2023-01-21T20:54:06.385Z,1.07
2023-01-21T20:55:09.551Z,1.06
2023-01-21T20:56:18.932Z,1.06
2023-01-21T20:57:21.988Z,1.06
2023-01-21T20:58:23.861Z,1.02
2023-01-21T20:59:25.751Z,1.02
2023-01-21T21:00:36.103Z,1.06
2023-01-21T21:01:38.500Z,1.04
2023-01-21T21:02:40.404Z,1.06
2023-01-21T21:03:43.275Z,1.04
2023-01-21T21:04:45.182Z,1.08
2023-01-21T21:05:48.524Z,1.08
2023-01-21T21:06:50.559Z,1.05
2023-01-21T21:07:53.206Z,1.04
2023-01-21T21:08:58.062Z,1.07
2023-01-21T21:09:59.974Z,1.02
2023-01-21T21:11:01.961Z,1.03
2023-01-21T21:12:04.474Z,1.03
2023-01-21T21:13:06.854Z,1.05
2023-01-21T21:14:08.756Z,1.03
2023-01-21T21:15:11.262Z,1.04
2023-01-21T21:16:20.511Z,1.07
2023-01-21T21:17:22.599Z,1.05
2023-01-21T21:18:26.585Z,1.07
2023-01-21T21:19:28.552Z,1.05
2023-01-21T21:21:43.148Z,1.14
2023-01-21T21:22:46.672Z,1.04
2023-01-21T21:23:48.562Z,1.01
2023-01-21T21:24:50.430Z,1.00
2023-01-21T21:25:52.416Z,1.02
2023-01-21T21:26:54.706Z,1.00
2023-01-21T21:27:56.787Z,1.00
2023-01-21T21:28:59.683Z,1.01
2023-01-21T21:30:01.752Z,1.02
2023-01-21T21:31:04.401Z,1.03
2023-01-21T21:32:09.612Z,1.04
2023-01-21T21:33:18.140Z,1.03
2023-01-21T21:34:20.327Z,1.06
2023-01-21T21:35:31.057Z,1.11
2023-01-21T21:36:33.186Z,1.07
2023-01-21T21:37:35.070Z,1.11
2023-01-21T21:38:37.463Z,1.10
2023-01-21T21:39:39.437Z,1.07
2023-01-21T21:40:46.063Z,1.08
2023-01-21T21:41:47.984Z,1.10
2023-01-21T21:42:53.317Z,1.15
2023-01-21T21:43:55.233Z,1.10
2023-01-21T21:44:57.133Z,1.10
2023-01-21T21:46:07.177Z,1.07
2023-01-21T21:47:12.758Z,1.06
2023-01-21T21:49:28.220Z,1.20
2023-01-21T21:50:30.262Z,1.08
2023-01-21T21:51:32.167Z,1.08
2023-01-21T21:52:34.288Z,1.08
2023-01-21T21:53:37.705Z,1.05
2023-01-21T21:54:39.828Z,1.07
2023-01-21T21:55:41.710Z,1.08
2023-01-21T21:56:44.207Z,1.07
2023-01-21T21:57:46.628Z,1.09
2023-01-21T21:58:50.505Z,1.06
2023-01-21T21:59:53.291Z,1.08
2023-01-21T22:00:55.589Z,1.09
2023-01-21T22:01:57.680Z,1.09
2023-01-21T22:02:59.624Z,1.13
2023-01-21T22:04:03.038Z,1.14
2023-01-21T22:05:06.718Z,1.14
2023-01-21T22:06:10.407Z,1.11
2023-01-21T22:07:12.454Z,1.17
2023-01-21T22:08:14.745Z,1.15
2023-01-21T22:09:16.688Z,1.11
2023-01-21T22:10:18.911Z,1.12
2023-01-21T22:11:22.514Z,1.15
2023-01-21T22:12:24.500Z,1.15
2023-01-21T22:13:30.449Z,1.14
2023-01-21T22:14:32.518Z,1.16
2023-01-21T22:15:34.476Z,1.16
2023-01-21T22:16:37.819Z,1.13
2023-01-21T22:17:39.842Z,1.20
2023-01-21T22:18:42.773Z,1.18
2023-01-21T22:19:44.972Z,1.21
2023-01-21T22:20:48.629Z,1.17
2023-01-21T22:21:50.531Z,1.20
2023-01-21T22:22:52.429Z,1.20
2023-01-21T22:23:54.663Z,1.22
2023-01-21T22:24:56.646Z,1.25
2023-01-21T22:26:00.576Z,1.22
2023-01-21T22:27:04.134Z,1.23
2023-01-21T22:28:06.293Z,1.23
2023-01-21T22:29:08.184Z,1.20
2023-01-21T22:30:11.968Z,1.17
2023-01-21T22:31:17.598Z,1.18
2023-01-21T22:32:19.638Z,1.19
2023-01-21T22:33:21.524Z,1.17
2023-01-21T22:34:23.406Z,1.19
2023-01-21T22:35:25.543Z,1.21
2023-01-21T22:36:29.592Z,1.25
2023-01-21T22:37:31.582Z,1.21
2023-01-21T22:38:36.047Z,1.21
2023-01-21T22:39:37.983Z,1.26
2023-01-21T22:40:40.757Z,1.24
2023-01-21T22:41:42.848Z,1.17
2023-01-21T22:42:44.843Z,1.23
2023-01-21T22:43:48.371Z,1.23
2023-01-21T22:44:50.471Z,1.20
2023-01-21T22:45:55.462Z,1.23
2023-01-21T22:46:57.539Z,1.23
2023-01-21T22:48:00.593Z,1.24
2023-01-21T22:49:02.936Z,1.26
2023-01-21T22:50:06.705Z,1.22
2023-01-21T22:51:11.452Z,1.22
2023-01-21T22:52:13.508Z,1.28
2023-01-21T22:53:15.378Z,1.23
2023-01-21T22:54:17.295Z,1.22
2023-01-21T22:55:19.666Z,1.23
2023-01-21T22:56:39.924Z,1.28
2023-01-21T22:57:28.150Z,1.30
2023-01-21T22:58:31.628Z,1.29
2023-01-21T22:59:33.565Z,1.24
2023-01-21T23:00:40.254Z,1.19
2023-01-21T23:01:42.716Z,1.21
2023-01-21T23:02:44.799Z,1.22
2023-01-21T23:03:46.666Z,1.23
2023-01-21T23:04:48.642Z,1.22
2023-01-21T23:05:51.741Z,1.21
2023-01-21T23:06:53.772Z,1.22
2023-01-21T23:07:56.025Z,1.20
2023-01-21T23:08:58.881Z,1.19
2023-01-21T23:10:00.829Z,1.22
2023-01-21T23:11:04.856Z,1.28
2023-01-21T23:12:07.025Z,1.24
2023-01-21T23:13:09.834Z,1.23
2023-01-21T23:14:12.206Z,1.28
2023-01-21T23:15:14.720Z,1.29
2023-01-21T23:16:19.311Z,1.28
2023-01-21T23:17:21.448Z,1.26
2023-01-21T23:18:25.273Z,1.31
2023-01-21T23:19:27.416Z,1.27
2023-01-21T23:20:29.486Z,1.31
2023-01-21T23:21:31.376Z,1.27
2023-01-21T23:22:33.941Z,1.28
2023-01-21T23:23:35.958Z,1.28
2023-01-21T23:24:37.855Z,1.32
2023-01-21T23:25:42.762Z,1.28
2023-01-21T23:26:44.997Z,1.35
2023-01-21T23:27:46.857Z,1.32
2023-01-21T23:28:54.458Z,1.33
2023-01-21T23:29:56.426Z,1.36
2023-01-21T23:31:08.110Z,1.36
2023-01-21T23:32:10.145Z,1.36
2023-01-21T23:33:12.128Z,1.34
2023-01-21T23:34:14.342Z,1.34
2023-01-21T23:35:16.208Z,1.33
2023-01-21T23:36:18.535Z,1.29
2023-01-21T23:37:20.460Z,1.35
2023-01-21T23:38:22.325Z,1.30
2023-01-21T23:39:24.204Z,1.31
2023-01-21T23:40:26.392Z,1.30
2023-01-21T23:41:28.365Z,1.31
2023-01-21T23:42:30.246Z,1.34
2023-01-21T23:43:32.418Z,1.32
2023-01-21T23:44:34.322Z,1.37
2023-01-21T23:45:38.490Z,1.35
2023-01-21T23:46:40.528Z,1.32
2023-01-21T23:47:42.806Z,1.33
2023-01-21T23:48:45.248Z,1.30
2023-01-21T23:49:47.147Z,1.32
2023-01-21T23:50:49.871Z,1.33
2023-01-21T23:51:51.885Z,1.31
